Terminal Aerodrome Forecast
Issued by NWS

Home | Current Version | Previous Version | Text Only | Print | Product List | Glossary On
Versions: 1 2 3 4 5 6 7 8 9 10 11 12 13 14 15 16 17 18 19 20 21 22 23 24 25 26
292
FTUS44 KOHX 301249 AAA
TAFCKV
TAF AMD
KCKV 301249Z 3013/0112 22003KT P6SM VCSH OVC010
      TEMPO 3013/3016 -SHRA
     FM301700 28006KT P6SM VCSH BKN015
     FM302300 28005KT P6SM OVC050
     FM010500 24003KT P6SM OVC007=

USA.gov is the U.S. government's official web portal to all federal, state and local government web resources and services.